createdAt,value
2022-10-04T00:00:50.388Z,89.45
2022-10-04T00:05:58.571Z,89.49
2022-10-04T00:11:07.379Z,89.40
2022-10-04T00:16:21.258Z,89.39
2022-10-04T00:21:24.727Z,88.75
2022-10-04T00:27:09.508Z,88.35
2022-10-04T00:32:27.042Z,87.36
2022-10-04T00:37:56.049Z,87.37
2022-10-04T00:43:00.436Z,87.68
2022-10-04T00:48:18.320Z,87.80
2022-10-04T00:53:40.494Z,87.66
2022-10-04T00:59:03.141Z,87.94
2022-10-04T01:04:14.140Z,88.13
2022-10-04T01:09:18.241Z,88.37
2022-10-04T01:14:29.337Z,87.87
2022-10-04T01:19:32.399Z,88.03
2022-10-04T01:24:37.007Z,87.97
2022-10-04T01:29:38.998Z,87.90
2022-10-04T01:34:41.245Z,88.28
2022-10-04T01:39:45.615Z,88.29
2022-10-04T01:44:53.196Z,88.20
2022-10-04T01:49:57.873Z,88.12
2022-10-04T01:55:05.478Z,88.47
2022-10-04T02:00:09.698Z,88.50
2022-10-04T02:05:14.081Z,88.50
2022-10-04T02:10:21.515Z,88.43
2022-10-04T02:15:26.022Z,89.46
2022-10-04T02:20:28.060Z,88.85
2022-10-04T02:25:31.742Z,88.49
2022-10-04T02:30:36.602Z,87.93
2022-10-04T02:35:45.569Z,88.18
2022-10-04T02:40:56.585Z,87.54
2022-10-04T02:46:06.039Z,87.72
2022-10-04T02:51:21.870Z,87.74
2022-10-04T02:56:25.688Z,87.62
2022-10-04T03:01:36.936Z,87.37
2022-10-04T03:06:39.372Z,87.62
2022-10-04T03:11:43.598Z,87.98
2022-10-04T03:16:47.811Z,88.03
2022-10-04T03:21:52.374Z,88.08
2022-10-04T03:26:57.646Z,88.56
2022-10-04T03:32:03.184Z,88.71
2022-10-04T03:37:09.977Z,89.25
2022-10-04T03:42:15.989Z,89.82
2022-10-04T03:47:22.274Z,90.18
2022-10-04T03:52:27.347Z,90.76
2022-10-04T03:57:31.569Z,91.69
2022-10-04T04:02:45.711Z,92.82
2022-10-04T04:07:58.299Z,92.56
2022-10-04T04:13:06.842Z,92.59
2022-10-04T04:18:19.433Z,92.26
2022-10-04T04:23:25.634Z,91.59
2022-10-04T04:28:34.165Z,91.70
2022-10-04T04:33:44.421Z,91.13
2022-10-04T04:38:46.413Z,91.78
2022-10-04T04:43:50.732Z,91.37
2022-10-04T04:48:58.732Z,91.38
2022-10-04T04:54:04.760Z,90.85
2022-10-04T04:59:08.535Z,90.38
2022-10-04T05:04:18.779Z,90.60
2022-10-04T05:09:25.459Z,89.96
2022-10-04T05:14:29.128Z,89.24
2022-10-04T05:19:34.060Z,89.28
2022-10-04T05:24:39.754Z,88.92
2022-10-04T05:30:02.983Z,89.02
2022-10-04T05:35:16.080Z,87.83
2022-10-04T05:40:32.786Z,87.81
2022-10-04T05:45:36.274Z,87.66
2022-10-04T05:50:40.232Z,86.89
2022-10-04T05:55:54.301Z,86.34
2022-10-04T06:01:13.470Z,86.57
2022-10-04T06:06:22.735Z,86.59
2022-10-04T06:11:37.268Z,85.86
2022-10-04T06:16:59.878Z,86.00
2022-10-04T06:22:17.370Z,85.94
2022-10-04T06:27:27.639Z,86.11
2022-10-04T06:33:03.330Z,86.81
2022-10-04T06:38:41.265Z,86.21
2022-10-04T06:43:59.058Z,85.55
2022-10-04T06:49:16.105Z,85.93
2022-10-04T06:54:31.425Z,85.55
2022-10-04T06:59:58.647Z,84.57
2022-10-04T07:05:14.131Z,84.54
2022-10-04T07:10:27.718Z,83.25
2022-10-04T07:15:34.181Z,83.49
2022-10-04T07:20:37.879Z,81.52
2022-10-04T07:25:45.984Z,81.53
2022-10-04T07:30:53.241Z,81.68
2022-10-04T07:36:07.316Z,81.68
2022-10-04T07:41:13.968Z,80.58
2022-10-04T07:46:24.059Z,80.41
2022-10-04T07:51:36.597Z,80.94
2022-10-04T07:56:47.254Z,80.79
2022-10-04T08:01:56.911Z,79.46
2022-10-04T08:07:02.467Z,79.89
2022-10-04T08:12:14.608Z,79.84
2022-10-04T08:17:28.375Z,77.38
2022-10-04T08:23:01.277Z,75.57
2022-10-04T08:28:14.674Z,78.31
2022-10-04T08:33:26.663Z,78.36
2022-10-04T08:38:42.086Z,78.66
2022-10-04T08:44:20.033Z,79.44
2022-10-04T08:49:46.598Z,78.99
2022-10-04T08:55:20.778Z,78.23
2022-10-04T09:00:31.717Z,78.16
2022-10-04T09:05:57.511Z,75.95
2022-10-04T09:11:19.772Z,76.74
2022-10-04T09:16:33.691Z,75.90
2022-10-04T09:21:50.347Z,74.22
2022-10-04T09:27:00.873Z,74.34
2022-10-04T09:32:36.068Z,74.53
2022-10-04T09:37:59.603Z,71.81
2022-10-04T09:43:41.752Z,64.07
2022-10-04T09:48:55.379Z,63.02
2022-10-04T09:54:20.066Z,63.28
2022-10-04T09:59:48.420Z,62.54
2022-10-04T10:05:08.735Z,57.14
2022-10-04T10:10:22.591Z,55.43
2022-10-04T10:15:33.850Z,50.56
2022-10-04T10:21:10.946Z,52.86
2022-10-04T10:26:33.380Z,55.20
2022-10-04T10:31:53.766Z,55.25
2022-10-04T10:37:07.971Z,56.49
2022-10-04T10:42:27.034Z,45.15
2022-10-04T10:47:44.334Z,49.53
2022-10-04T10:53:22.905Z,53.33
2022-10-04T10:59:05.755Z,58.64
2022-10-04T11:04:31.315Z,60.35
2022-10-04T11:09:53.097Z,62.44
2022-10-04T11:15:33.500Z,61.96
2022-10-04T11:21:00.217Z,60.86
2022-10-04T11:26:40.692Z,60.29
2022-10-04T11:32:15.925Z,60.07
2022-10-04T11:37:29.517Z,58.83
2022-10-04T11:42:51.683Z,57.07
2022-10-04T11:48:02.845Z,54.05
2022-10-04T11:53:28.163Z,55.43
2022-10-04T11:58:45.958Z,55.85
2022-10-04T12:04:27.237Z,54.81
2022-10-04T12:09:42.220Z,56.73
2022-10-04T12:15:01.918Z,58.05
2022-10-04T12:20:38.861Z,57.07
2022-10-04T12:25:54.721Z,56.78
2022-10-04T12:31:10.956Z,55.89
2022-10-04T12:36:28.070Z,55.95
2022-10-04T12:41:47.732Z,56.86
2022-10-04T12:47:01.657Z,57.39
2022-10-04T12:52:11.245Z,56.75
2022-10-04T12:57:40.936Z,58.16
2022-10-04T13:03:11.369Z,56.55
2022-10-04T13:08:25.532Z,57.76
2022-10-04T13:14:04.661Z,55.66
2022-10-04T13:19:16.926Z,56.83
2022-10-04T13:24:28.440Z,56.45
2022-10-04T13:29:37.865Z,56.18
2022-10-04T13:34:52.489Z,55.34
2022-10-04T13:40:25.495Z,54.03
2022-10-04T13:45:37.702Z,53.91
2022-10-04T13:50:58.577Z,54.70
2022-10-04T13:56:06.405Z,54.78
2022-10-04T14:01:41.439Z,56.90
2022-10-04T14:07:22.821Z,55.64
2022-10-04T14:13:09.408Z,57.70
2022-10-04T14:18:32.766Z,59.22
2022-10-04T14:24:19.633Z,59.84
2022-10-04T14:29:43.888Z,58.48
2022-10-04T14:35:00.089Z,55.13
2022-10-04T14:40:21.524Z,54.74
2022-10-04T14:45:38.640Z,53.38
2022-10-04T14:50:56.308Z,54.90
2022-10-04T14:56:16.973Z,54.97
2022-10-04T15:01:21.370Z,55.22
2022-10-04T15:06:35.002Z,55.59
2022-10-04T15:12:02.347Z,56.95
2022-10-04T15:17:10.966Z,57.18
2022-10-04T15:22:22.999Z,58.48
2022-10-04T15:27:49.160Z,60.00
2022-10-04T15:33:06.099Z,60.14
2022-10-04T15:38:23.539Z,60.19
2022-10-04T15:43:29.065Z,61.43
2022-10-04T15:48:49.816Z,62.33
2022-10-04T15:54:33.367Z,62.94
2022-10-04T15:59:46.053Z,63.91
2022-10-04T16:05:03.435Z,65.56
2022-10-04T16:10:19.388Z,65.98
2022-10-04T16:15:32.760Z,66.89
2022-10-04T16:21:04.376Z,68.97
2022-10-04T16:26:10.402Z,69.37
2022-10-04T16:31:41.447Z,70.97
2022-10-04T16:36:51.021Z,72.63
2022-10-04T16:42:00.005Z,73.00
2022-10-04T16:47:12.783Z,73.73
2022-10-04T16:52:37.623Z,74.46
2022-10-04T16:57:41.386Z,76.24
2022-10-04T17:03:12.192Z,77.62
2022-10-04T17:08:46.986Z,78.88
2022-10-04T17:13:56.891Z,79.54
2022-10-04T17:19:32.051Z,80.49
2022-10-04T17:24:46.433Z,81.75
2022-10-04T17:30:02.674Z,82.58
2022-10-04T17:35:16.883Z,82.35
2022-10-04T17:40:33.591Z,82.91
2022-10-04T17:45:52.555Z,84.60
2022-10-04T17:51:02.239Z,84.91
2022-10-04T17:56:06.943Z,85.62
2022-10-04T18:01:13.471Z,85.98
2022-10-04T18:06:25.528Z,86.17
2022-10-04T18:11:35.801Z,86.08
2022-10-04T18:16:50.073Z,87.19
2022-10-04T18:21:52.744Z,86.41
2022-10-04T18:26:58.705Z,85.00
2022-10-04T18:32:15.281Z,84.33
2022-10-04T18:37:21.277Z,83.99
2022-10-04T18:42:28.286Z,83.48
2022-10-04T18:47:36.428Z,84.84
2022-10-04T18:52:51.036Z,84.57
2022-10-04T18:58:02.883Z,84.19
2022-10-04T19:03:15.784Z,84.24
2022-10-04T19:08:31.407Z,83.87
2022-10-04T19:13:43.532Z,83.71
2022-10-04T19:18:58.561Z,84.00
2022-10-04T19:24:28.929Z,84.82
2022-10-04T19:29:44.295Z,85.09
2022-10-04T19:35:01.827Z,85.55
2022-10-04T19:40:09.531Z,85.61
2022-10-04T19:45:25.807Z,85.78
2022-10-04T19:50:36.116Z,85.91
2022-10-04T19:55:47.459Z,86.10
2022-10-04T20:00:50.275Z,86.95
2022-10-04T20:05:55.447Z,87.14
2022-10-04T20:11:14.372Z,88.85
2022-10-04T20:16:53.766Z,89.15
2022-10-04T20:22:27.001Z,89.25
2022-10-04T20:28:00.621Z,89.68
2022-10-04T20:33:02.396Z,89.37
2022-10-04T20:38:32.963Z,90.16
2022-10-04T20:43:53.845Z,90.88
2022-10-04T20:48:56.102Z,90.53
2022-10-04T20:54:00.422Z,91.14
2022-10-04T20:59:04.311Z,90.30
2022-10-04T21:04:13.829Z,90.17
2022-10-04T21:09:16.828Z,90.48
2022-10-04T21:14:23.651Z,89.42
2022-10-04T21:19:44.241Z,89.04
2022-10-04T21:24:55.714Z,89.90
2022-10-04T21:29:58.794Z,89.55
2022-10-04T21:35:00.897Z,89.66
2022-10-04T21:40:06.071Z,89.60
2022-10-04T21:45:08.345Z,89.68
2022-10-04T21:50:10.550Z,89.46
2022-10-04T21:55:14.228Z,88.79
2022-10-04T22:00:15.884Z,89.04
2022-10-04T22:05:18.101Z,89.53
2022-10-04T22:10:21.296Z,89.98
2022-10-04T22:15:25.562Z,90.10
2022-10-04T22:20:27.827Z,90.82
2022-10-04T22:25:31.353Z,90.63
2022-10-04T22:30:34.595Z,90.81
2022-10-04T22:35:36.500Z,90.97
2022-10-04T22:40:40.028Z,91.02
2022-10-04T22:45:43.279Z,90.76
2022-10-04T22:50:45.324Z,91.24
2022-10-04T22:55:49.932Z,91.31
2022-10-04T23:00:51.911Z,91.95
2022-10-04T23:05:54.103Z,92.18
2022-10-04T23:10:58.311Z,92.18
2022-10-04T23:16:07.115Z,92.06
2022-10-04T23:21:19.677Z,92.31
2022-10-04T23:26:25.617Z,92.79
2022-10-04T23:31:27.915Z,92.85
2022-10-04T23:36:30.888Z,92.65
2022-10-04T23:41:34.210Z,92.96
2022-10-04T23:46:36.295Z,93.10
2022-10-04T23:51:38.539Z,93.72
2022-10-04T23:56:43.295Z,94.54
